sensor_id;sensor_type;location;lat;lon;timestamp;pressure;altitude;pressure_sealevel;temperature;humidity
58239;BME280;44037;55.638;37.356;2022-09-02T00:02:03;98654.81;;;7.57;75.56
58239;BME280;44037;55.638;37.356;2022-09-02T00:04:32;98648.78;;;7.55;75.34
58239;BME280;44037;55.638;37.356;2022-09-02T00:06:59;98649.63;;;7.54;75.25
58239;BME280;44037;55.638;37.356;2022-09-02T00:09:26;98656.50;;;7.52;74.84
58239;BME280;44037;55.638;37.356;2022-09-02T00:11:54;98654.78;;;7.54;75.42
58239;BME280;44037;55.638;37.356;2022-09-02T00:14:25;98654.75;;;7.51;75.43
58239;BME280;44037;55.638;37.356;2022-09-02T00:16:54;98659.09;;;7.57;75.77
58239;BME280;44037;55.638;37.356;2022-09-02T00:19:23;98658.22;;;7.58;75.35
58239;BME280;44037;55.638;37.356;2022-09-02T00:21:52;98655.69;;;7.61;75.73
58239;BME280;44037;55.638;37.356;2022-09-02T00:24:20;98660.88;;;7.67;75.47
58239;BME280;44037;55.638;37.356;2022-09-02T00:26:48;98660.91;;;7.72;75.25
58239;BME280;44037;55.638;37.356;2022-09-02T00:29:16;98667.81;;;7.77;75.50
58239;BME280;44037;55.638;37.356;2022-09-02T00:31:44;98651.47;;;7.80;75.00
58239;BME280;44037;55.638;37.356;2022-09-02T00:34:13;98659.22;;;7.81;75.16
58239;BME280;44037;55.638;37.356;2022-09-02T00:36:40;98652.34;;;7.83;74.39
58239;BME280;44037;55.638;37.356;2022-09-02T00:39:07;98652.34;;;7.83;74.87
58239;BME280;44037;55.638;37.356;2022-09-02T00:41:40;98648.94;;;7.88;74.76
58239;BME280;44037;55.638;37.356;2022-09-02T00:44:09;98653.25;;;7.92;74.57
58239;BME280;44037;55.638;37.356;2022-09-02T00:46:37;98656.72;;;7.98;74.14
58239;BME280;44037;55.638;37.356;2022-09-02T00:49:08;98655.03;;;8.02;74.51
58239;BME280;44037;55.638;37.356;2022-09-02T00:51:40;98646.41;;;8.05;73.87
58239;BME280;44037;55.638;37.356;2022-09-02T00:54:10;98661.91;;;8.08;73.64
58239;BME280;44037;55.638;37.356;2022-09-02T00:56:39;98666.22;;;8.10;73.87
58239;BME280;44037;55.638;37.356;2022-09-02T00:59:09;98667.97;;;8.14;73.77
58239;BME280;44037;55.638;37.356;2022-09-02T01:01:39;98661.94;;;8.17;73.67
58239;BME280;44037;55.638;37.356;2022-09-02T01:04:06;98661.97;;;8.20;73.59
58239;BME280;44037;55.638;37.356;2022-09-02T01:06:33;98660.25;;;8.22;73.79
58239;BME280;44037;55.638;37.356;2022-09-02T01:09:05;98664.53;;;8.25;73.72
58239;BME280;44037;55.638;37.356;2022-09-02T01:11:39;98656.78;;;8.26;73.68
58239;BME280;44037;55.638;37.356;2022-09-02T01:14:07;98654.25;;;8.28;74.00
58239;BME280;44037;55.638;37.356;2022-09-02T01:16:39;98648.19;;;8.27;73.54
58239;BME280;44037;55.638;37.356;2022-09-02T01:19:11;98651.66;;;8.29;73.35
58239;BME280;44037;55.638;37.356;2022-09-02T01:21:46;98649.06;;;8.26;73.03
58239;BME280;44037;55.638;37.356;2022-09-02T01:24:13;98654.22;;;8.26;73.39
58239;BME280;44037;55.638;37.356;2022-09-02T01:26:41;98645.63;;;8.26;73.57
58239;BME280;44037;55.638;37.356;2022-09-02T01:29:08;98651.63;;;8.26;73.72
58239;BME280;44037;55.638;37.356;2022-09-02T01:31:35;98658.53;;;8.24;73.37
58239;BME280;44037;55.638;37.356;2022-09-02T01:34:02;98656.78;;;8.22;73.13
58239;BME280;44037;55.638;37.356;2022-09-02T01:36:31;98661.97;;;8.20;73.49
58239;BME280;44037;55.638;37.356;2022-09-02T01:39:00;98661.91;;;8.14;73.48
58239;BME280;44037;55.638;37.356;2022-09-02T01:41:27;98649.00;;;8.08;73.65
58239;BME280;44037;55.638;37.356;2022-09-02T01:43:54;98657.59;;;8.08;73.79
58239;BME280;44037;55.638;37.356;2022-09-02T01:46:21;98663.63;;;8.07;73.28
58239;BME280;44037;55.638;37.356;2022-09-02T01:48:49;98661.88;;;8.02;73.79
58239;BME280;44037;55.638;37.356;2022-09-02T01:51:18;98674.78;;;7.94;73.60
58239;BME280;44037;55.638;37.356;2022-09-02T01:53:47;98679.06;;;7.92;74.01
58239;BME280;44037;55.638;37.356;2022-09-02T01:56:16;98674.72;;;7.84;73.67
58239;BME280;44037;55.638;37.356;2022-09-02T01:58:43;98677.28;;;7.78;73.89
58239;BME280;44037;55.638;37.356;2022-09-02T02:01:10;98686.72;;;7.75;74.01
58239;BME280;44037;55.638;37.356;2022-09-02T02:03:37;98684.97;;;7.72;74.66
58239;BME280;44037;55.638;37.356;2022-09-02T02:06:08;98677.19;;;7.69;74.85
58239;BME280;44037;55.638;37.356;2022-09-02T02:08:36;98688.38;;;7.65;74.97
58239;BME280;44037;55.638;37.356;2022-09-02T02:11:03;98678.88;;;7.59;74.32
58239;BME280;44037;55.638;37.356;2022-09-02T02:13:32;98676.28;;;7.55;74.66
58239;BME280;44037;55.638;37.356;2022-09-02T02:15:59;98677.13;;;7.53;75.22
58239;BME280;44037;55.638;37.356;2022-09-02T02:18:26;98686.59;;;7.55;75.07
58239;BME280;44037;55.638;37.356;2022-09-02T02:20:54;98679.69;;;7.50;74.47
58239;BME280;44037;55.638;37.356;2022-09-02T02:23:21;98684.84;;;7.49;74.30
58239;BME280;44037;55.638;37.356;2022-09-02T02:25:49;98686.50;;;7.45;74.38
58239;BME280;44037;55.638;37.356;2022-09-02T02:28:16;98690.81;;;7.43;74.32
58239;BME280;44037;55.638;37.356;2022-09-02T02:30:44;98693.41;;;7.43;74.76
58239;BME280;44037;55.638;37.356;2022-09-02T02:33:12;98699.44;;;7.47;74.84
58239;BME280;44037;55.638;37.356;2022-09-02T02:35:39;98699.44;;;7.48;74.68
58239;BME280;44037;55.638;37.356;2022-09-02T02:38:06;98694.28;;;7.50;74.53
58239;BME280;44037;55.638;37.356;2022-09-02T02:40:34;98702.00;;;7.50;74.36
58239;BME280;44037;55.638;37.356;2022-09-02T02:43:02;98701.16;;;7.49;74.84
58239;BME280;44037;55.638;37.356;2022-09-02T02:45:29;98707.19;;;7.51;74.87
58239;BME280;44037;55.638;37.356;2022-09-02T02:47:58;98709.78;;;7.58;74.99
58239;BME280;44037;55.638;37.356;2022-09-02T02:50:25;98708.97;;;7.62;74.88
58239;BME280;44037;55.638;37.356;2022-09-02T02:52:52;98715.88;;;7.69;74.87
58239;BME280;44037;55.638;37.356;2022-09-02T02:55:22;98713.34;;;7.77;75.00
58239;BME280;44037;55.638;37.356;2022-09-02T02:57:50;98711.66;;;7.83;75.24
58239;BME280;44037;55.638;37.356;2022-09-02T03:00:21;98718.59;;;7.91;74.55
58239;BME280;44037;55.638;37.356;2022-09-02T03:02:49;98720.31;;;7.95;74.31
58239;BME280;44037;55.638;37.356;2022-09-02T03:05:22;98720.38;;;7.99;74.35
58239;BME280;44037;55.638;37.356;2022-09-02T03:07:49;98722.94;;;8.01;74.15
58239;BME280;44037;55.638;37.356;2022-09-02T03:10:17;98718.66;;;8.03;73.84
58239;BME280;44037;55.638;37.356;2022-09-02T03:12:44;98729.84;;;8.05;73.79
58239;BME280;44037;55.638;37.356;2022-09-02T03:15:13;98723.84;;;8.06;72.74
58239;BME280;44037;55.638;37.356;2022-09-02T03:17:41;98720.34;;;8.03;72.74
58239;BME280;44037;55.638;37.356;2022-09-02T03:20:09;98730.69;;;8.01;72.33
58239;BME280;44037;55.638;37.356;2022-09-02T03:22:38;98721.22;;;8.00;71.84
58239;BME280;44037;55.638;37.356;2022-09-02T03:25:06;98720.38;;;7.99;71.51
58239;BME280;44037;55.638;37.356;2022-09-02T03:27:33;98725.53;;;8.01;70.61
58239;BME280;44037;55.638;37.356;2022-09-02T03:30:04;98723.78;;;8.00;70.17
58239;BME280;44037;55.638;37.356;2022-09-02T03:32:31;98722.09;;;8.02;69.18
58239;BME280;44037;55.638;37.356;2022-09-02T03:34:58;98731.56;;;8.06;68.60
58239;BME280;44037;55.638;37.356;2022-09-02T03:37:26;98727.25;;;8.08;68.40
58239;BME280;44037;55.638;37.356;2022-09-02T03:39:55;98727.28;;;8.13;67.67
58239;BME280;44037;55.638;37.356;2022-09-02T03:42:22;98729.91;;;8.18;67.28
58239;BME280;44037;55.638;37.356;2022-09-02T03:44:49;98735.94;;;8.27;67.00
58239;BME280;44037;55.638;37.356;2022-09-02T03:47:16;98731.66;;;8.34;66.64
58239;BME280;44037;55.638;37.356;2022-09-02T03:49:47;98730.84;;;8.41;65.98
58239;BME280;44037;55.638;37.356;2022-09-02T03:52:14;98733.47;;;8.48;65.85
58239;BME280;44037;55.638;37.356;2022-09-02T03:54:41;98732.63;;;8.49;65.71
58239;BME280;44037;55.638;37.356;2022-09-02T03:57:10;98734.38;;;8.57;65.29
58239;BME280;44037;55.638;37.356;2022-09-02T03:59:37;98748.16;;;8.69;65.29
58239;BME280;44037;55.638;37.356;2022-09-02T04:02:04;98754.22;;;8.75;65.24
58239;BME280;44037;55.638;37.356;2022-09-02T04:04:31;98753.34;;;8.75;64.90
58239;BME280;44037;55.638;37.356;2022-09-02T04:06:58;98761.97;;;8.80;65.64
58239;BME280;44037;55.638;37.356;2022-09-02T04:09:26;98763.69;;;8.86;65.73
58239;BME280;44037;55.638;37.356;2022-09-02T04:11:53;98771.47;;;8.98;65.21
58239;BME280;44037;55.638;37.356;2022-09-02T04:14:21;98766.31;;;9.07;65.43
58239;BME280;44037;55.638;37.356;2022-09-02T04:16:48;98763.72;;;9.11;65.64
58239;BME280;44037;55.638;37.356;2022-09-02T04:19:22;98765.47;;;9.27;65.23
58239;BME280;44037;55.638;37.356;2022-09-02T04:21:54;98775.81;;;9.33;65.20
58239;BME280;44037;55.638;37.356;2022-09-02T04:24:28;98765.47;;;9.41;64.99
58239;BME280;44037;55.638;37.356;2022-09-02T04:26:55;98773.22;;;9.36;65.15
58239;BME280;44037;55.638;37.356;2022-09-02T04:29:24;98773.22;;;9.32;65.05
58239;BME280;44037;55.638;37.356;2022-09-02T04:31:51;98771.50;;;9.35;65.72
58239;BME280;44037;55.638;37.356;2022-09-02T04:34:23;98771.50;;;9.40;65.33
58239;BME280;44037;55.638;37.356;2022-09-02T04:37:19;98769.78;;;9.41;65.84
58239;BME280;44037;55.638;37.356;2022-09-02T04:39:56;98767.22;;;9.44;65.28
58239;BME280;44037;55.638;37.356;2022-09-02T04:42:23;98780.13;;;9.61;65.55
58239;BME280;44037;55.638;37.356;2022-09-02T04:44:51;98774.06;;;9.80;65.50
58239;BME280;44037;55.638;37.356;2022-09-02T04:47:30;98771.44;;;9.96;64.84
58239;BME280;44037;55.638;37.356;2022-09-02T04:49:57;98763.66;;;10.08;64.29
58239;BME280;44037;55.638;37.356;2022-09-02T04:52:27;98767.97;;;10.08;63.98
58239;BME280;44037;55.638;37.356;2022-09-02T04:54:54;98767.97;;;10.03;64.08
58239;BME280;44037;55.638;37.356;2022-09-02T04:57:24;98784.38;;;9.97;63.52
58239;BME280;44037;55.638;37.356;2022-09-02T04:59:58;98782.66;;;9.95;64.03
58239;BME280;44037;55.638;37.356;2022-09-02T05:02:25;98782.66;;;9.95;64.23
58239;BME280;44037;55.638;37.356;2022-09-02T05:04:53;98789.53;;;10.01;63.78
58239;BME280;44037;55.638;37.356;2022-09-02T05:07:28;98786.09;;;9.98;63.52
58239;BME280;44037;55.638;37.356;2022-09-02T05:09:58;98785.25;;;10.06;63.53
58239;BME280;44037;55.638;37.356;2022-09-02T05:12:30;98797.34;;;9.94;63.76
58239;BME280;44037;55.638;37.356;2022-09-02T05:15:05;98800.81;;;9.78;63.91
58239;BME280;44037;55.638;37.356;2022-09-02T05:17:34;98796.50;;;9.57;64.35
58239;BME280;44037;55.638;37.356;2022-09-02T05:20:02;98797.34;;;9.43;64.97
58239;BME280;44037;55.638;37.356;2022-09-02T05:22:30;98805.13;;;9.56;64.75
58239;BME280;44037;55.638;37.356;2022-09-02T05:24:57;98806.84;;;9.64;64.80
58239;BME280;44037;55.638;37.356;2022-09-02T05:27:24;98820.63;;;9.63;64.08
58239;BME280;44037;55.638;37.356;2022-09-02T05:29:53;98816.34;;;9.68;64.09
58239;BME280;44037;55.638;37.356;2022-09-02T05:32:22;98818.91;;;9.82;64.19
58239;BME280;44037;55.638;37.356;2022-09-02T05:34:49;98821.44;;;10.09;63.35
58239;BME280;44037;55.638;37.356;2022-09-02T05:37:17;98825.75;;;10.21;63.07
58239;BME280;44037;55.638;37.356;2022-09-02T05:39:44;98821.41;;;10.27;63.24
58239;BME280;44037;55.638;37.356;2022-09-02T05:42:11;98827.44;;;10.34;62.73
58239;BME280;44037;55.638;37.356;2022-09-02T05:44:38;98824.88;;;10.29;62.38
58239;BME280;44037;55.638;37.356;2022-09-02T05:47:09;98825.75;;;10.27;62.36
58239;BME280;44037;55.638;37.356;2022-09-02T05:49:37;98828.28;;;10.35;62.79
58239;BME280;44037;55.638;37.356;2022-09-02T05:52:04;98829.19;;;10.38;61.72
58239;BME280;44037;55.638;37.356;2022-09-02T05:54:36;98833.50;;;10.41;61.45
58239;BME280;44037;55.638;37.356;2022-09-02T05:57:06;98834.38;;;10.38;61.37
58239;BME280;44037;55.638;37.356;2022-09-02T05:59:35;98836.97;;;10.38;61.91
58239;BME280;44037;55.638;37.356;2022-09-02T06:02:05;98826.59;;;10.43;61.91
58239;BME280;44037;55.638;37.356;2022-09-02T06:04:37;98831.72;;;10.46;60.63
58239;BME280;44037;55.638;37.356;2022-09-02T06:07:04;98843.81;;;10.47;61.38
58239;BME280;44037;55.638;37.356;2022-09-02T06:09:32;98843.84;;;10.44;61.45
58239;BME280;44037;55.638;37.356;2022-09-02T06:11:59;98852.47;;;10.30;61.32
58239;BME280;44037;55.638;37.356;2022-09-02T06:14:26;98841.25;;;10.36;61.40
58239;BME280;44037;55.638;37.356;2022-09-02T06:16:54;98855.94;;;10.39;61.52
58239;BME280;44037;55.638;37.356;2022-09-02T06:19:22;98845.56;;;10.37;60.95
58239;BME280;44037;55.638;37.356;2022-09-02T06:21:52;98856.78;;;10.32;61.29
58239;BME280;44037;55.638;37.356;2022-09-02T06:24:19;98854.19;;;10.52;60.97
58239;BME280;44037;55.638;37.356;2022-09-02T06:26:46;98858.44;;;10.65;61.03
58239;BME280;44037;55.638;37.356;2022-09-02T06:29:14;98862.72;;;10.80;60.48
58239;BME280;44037;55.638;37.356;2022-09-02T06:31:42;98859.91;;;11.20;58.54
58239;BME280;44037;55.638;37.356;2022-09-02T06:34:10;98870.09;;;11.50;58.39
58239;BME280;44037;55.638;37.356;2022-09-02T06:36:39;98875.22;;;11.59;57.65
58239;BME280;44037;55.638;37.356;2022-09-02T06:39:10;98870.09;;;11.50;57.92
58239;BME280;44037;55.638;37.356;2022-09-02T06:41:39;98866.66;;;11.45;57.08
58239;BME280;44037;55.638;37.356;2022-09-02T06:44:07;98883.13;;;11.42;57.44
58239;BME280;44037;55.638;37.356;2022-09-02T06:46:37;98895.28;;;11.31;57.30
58239;BME280;44037;55.638;37.356;2022-09-02T06:49:06;98892.81;;;11.04;57.71
58239;BME280;44037;55.638;37.356;2022-09-02T06:51:35;98901.53;;;10.96;59.34
58239;BME280;44037;55.638;37.356;2022-09-02T06:54:04;98916.31;;;10.66;60.26
58239;BME280;44037;55.638;37.356;2022-09-02T06:56:33;98905.09;;;10.28;62.03
58239;BME280;44037;55.638;37.356;2022-09-02T06:59:00;98919.78;;;10.04;63.44
58239;BME280;44037;55.638;37.356;2022-09-02T07:01:30;98911.16;;;10.10;63.71
58239;BME280;44037;55.638;37.356;2022-09-02T07:03:58;98900.81;;;10.32;63.42
58239;BME280;44037;55.638;37.356;2022-09-02T07:06:45;98907.66;;;10.60;63.32
58239;BME280;44037;55.638;37.356;2022-09-02T07:09:15;98906.75;;;10.82;62.39
58239;BME280;44037;55.638;37.356;2022-09-02T07:11:44;98907.50;;;11.05;62.71
58239;BME280;44037;55.638;37.356;2022-09-02T07:14:13;98909.13;;;11.33;62.73
58239;BME280;44037;55.638;37.356;2022-09-02T07:16:45;98908.16;;;11.51;60.59
58239;BME280;44037;55.638;37.356;2022-09-02T07:19:12;98897.72;;;11.56;57.69
58239;BME280;44037;55.638;37.356;2022-09-02T07:21:40;98916.88;;;11.31;59.19
58239;BME280;44037;55.638;37.356;2022-09-02T07:24:08;98910.09;;;11.12;59.06
58239;BME280;44037;55.638;37.356;2022-09-02T07:26:36;98924.72;;;11.22;58.14
58239;BME280;44037;55.638;37.356;2022-09-02T07:29:05;98914.22;;;11.47;57.20
58239;BME280;44037;55.638;37.356;2022-09-02T07:31:34;98912.31;;;11.72;55.97
58239;BME280;44037;55.638;37.356;2022-09-02T07:34:02;98911.25;;;11.96;53.94
58239;BME280;44037;55.638;37.356;2022-09-02T07:36:30;98907.94;;;11.77;55.06
58239;BME280;44037;55.638;37.356;2022-09-02T07:38:57;98916.72;;;11.59;55.91
58239;BME280;44037;55.638;37.356;2022-09-02T07:41:24;98922.78;;;11.58;55.61
58239;BME280;44037;55.638;37.356;2022-09-02T07:43:52;98925.28;;;11.77;54.75
58239;BME280;44037;55.638;37.356;2022-09-02T07:46:21;98919.91;;;12.00;53.83
58239;BME280;44037;55.638;37.356;2022-09-02T07:48:49;98932.69;;;12.25;53.73
58239;BME280;44037;55.638;37.356;2022-09-02T07:51:16;98919.59;;;12.39;52.93
58239;BME280;44037;55.638;37.356;2022-09-02T07:53:43;98931.56;;;12.54;52.76
58239;BME280;44037;55.638;37.356;2022-09-02T07:56:11;98921.06;;;12.63;52.68
58239;BME280;44037;55.638;37.356;2022-09-02T07:58:40;98921.16;;;12.57;52.81
58239;BME280;44037;55.638;37.356;2022-09-02T08:01:07;98925.50;;;12.53;52.66
58239;BME280;44037;55.638;37.356;2022-09-02T08:03:37;98930.72;;;12.49;53.16
58239;BME280;44037;55.638;37.356;2022-09-02T08:06:05;98926.53;;;12.35;53.82
58239;BME280;44037;55.638;37.356;2022-09-02T08:08:33;98923.97;;;12.34;53.58
58239;BME280;44037;55.638;37.356;2022-09-02T08:11:00;98934.41;;;12.27;54.12
58239;BME280;44037;55.638;37.356;2022-09-02T08:13:27;98942.13;;;12.34;52.96
58239;BME280;44037;55.638;37.356;2022-09-02T08:15:54;98938.75;;;12.27;52.42
58239;BME280;44037;55.638;37.356;2022-09-02T08:18:22;98958.06;;;11.87;52.94
58239;BME280;44037;55.638;37.356;2022-09-02T08:20:50;98953.72;;;11.91;54.00
58239;BME280;44037;55.638;37.356;2022-09-02T08:23:17;98955.44;;;11.92;54.23
58239;BME280;44037;55.638;37.356;2022-09-02T08:25:44;98966.78;;;11.75;55.66
58239;BME280;44037;55.638;37.356;2022-09-02T08:28:12;98978.19;;;11.49;57.00
58239;BME280;44037;55.638;37.356;2022-09-02T08:30:39;98982.50;;;11.52;58.70
58239;BME280;44037;55.638;37.356;2022-09-02T08:33:06;98991.06;;;11.65;59.07
58239;BME280;44037;55.638;37.356;2022-09-02T08:35:33;98993.66;;;11.71;58.71
58239;BME280;44037;55.638;37.356;2022-09-02T08:38:02;98985.84;;;11.73;59.52
58239;BME280;44037;55.638;37.356;2022-09-02T08:40:34;98986.81;;;11.58;59.92
58239;BME280;44037;55.638;37.356;2022-09-02T08:43:04;98983.22;;;11.74;59.65
58239;BME280;44037;55.638;37.356;2022-09-02T08:45:35;98983.00;;;12.14;58.94
58239;BME280;44037;55.638;37.356;2022-09-02T08:48:06;98982.72;;;12.47;58.31
58239;BME280;44037;55.638;37.356;2022-09-02T08:50:38;98990.47;;;12.53;58.77
58239;BME280;44037;55.638;37.356;2022-09-02T08:53:12;98994.88;;;12.43;57.86
58239;BME280;44037;55.638;37.356;2022-09-02T08:55:44;98989.44;;;12.70;56.42
58239;BME280;44037;55.638;37.356;2022-09-02T08:58:17;98997.03;;;12.90;56.28
58239;BME280;44037;55.638;37.356;2022-09-02T09:00:51;98989.97;;;13.03;55.98
58239;BME280;44037;55.638;37.356;2022-09-02T09:03:25;98983.19;;;13.61;54.69
58239;BME280;44037;55.638;37.356;2022-09-02T09:06:01;98987.00;;;13.98;52.92
58239;BME280;44037;55.638;37.356;2022-09-02T09:08:40;98990.59;;;13.89;51.98
58239;BME280;44037;55.638;37.356;2022-09-02T09:11:15;99002.13;;;13.73;50.79
58239;BME280;44037;55.638;37.356;2022-09-02T09:14:17;99007.69;;;13.48;51.63
58239;BME280;44037;55.638;37.356;2022-09-02T09:16:55;98992.09;;;13.45;51.42
58239;BME280;44037;55.638;37.356;2022-09-02T09:19:30;98987.94;;;13.25;50.32
58239;BME280;44037;55.638;37.356;2022-09-02T09:22:00;98998.50;;;13.13;50.21
58239;BME280;44037;55.638;37.356;2022-09-02T09:24:33;99020.03;;;13.24;49.55
58239;BME280;44037;55.638;37.356;2022-09-02T09:27:03;99008.50;;;13.50;49.09
58239;BME280;44037;55.638;37.356;2022-09-02T09:29:32;99003.19;;;13.58;48.44
58239;BME280;44037;55.638;37.356;2022-09-02T09:32:01;99015.75;;;13.21;49.29
58239;BME280;44037;55.638;37.356;2022-09-02T09:34:57;99030.69;;;13.04;49.76
58239;BME280;44037;55.638;37.356;2022-09-02T09:37:35;99025.09;;;13.41;48.94
58239;BME280;44037;55.638;37.356;2022-09-02T09:40:26;99010.63;;;13.86;46.67
58239;BME280;44037;55.638;37.356;2022-09-02T09:42:56;99011.47;;;13.88;46.13
58239;BME280;44037;55.638;37.356;2022-09-02T09:45:29;99026.81;;;14.08;45.71
58239;BME280;44037;55.638;37.356;2022-09-02T09:48:10;99026.81;;;14.06;45.53
58239;BME280;44037;55.638;37.356;2022-09-02T09:50:40;99032.00;;;14.08;44.99
58239;BME280;44037;55.638;37.356;2022-09-02T09:53:16;99039.06;;;14.00;45.45
58239;BME280;44037;55.638;37.356;2022-09-02T09:55:53;99040.06;;;13.89;46.03
58239;BME280;44037;55.638;37.356;2022-09-02T09:58:20;99033.84;;;14.00;45.85
58239;BME280;44037;55.638;37.356;2022-09-02T10:00:50;99033.50;;;14.23;46.17
58239;BME280;44037;55.638;37.356;2022-09-02T10:03:26;99033.97;;;14.50;44.74
58239;BME280;44037;55.638;37.356;2022-09-02T10:05:55;99036.09;;;14.79;44.58
58239;BME280;44037;55.638;37.356;2022-09-02T10:08:25;99038.38;;;14.98;44.65
58239;BME280;44037;55.638;37.356;2022-09-02T10:10:58;99042.78;;;14.94;44.11
58239;BME280;44037;55.638;37.356;2022-09-02T10:13:29;99039.53;;;14.81;43.84
58239;BME280;44037;55.638;37.356;2022-09-02T10:16:16;99035.78;;;14.44;43.88
58239;BME280;44037;55.638;37.356;2022-09-02T10:18:50;99036.97;;;14.25;44.57
58239;BME280;44037;55.638;37.356;2022-09-02T10:21:29;99038.47;;;14.40;43.30
58239;BME280;44037;55.638;37.356;2022-09-02T10:24:03;99046.00;;;14.58;44.07
58239;BME280;44037;55.638;37.356;2022-09-02T10:26:40;99047.72;;;14.59;44.38
58239;BME280;44037;55.638;37.356;2022-09-02T10:29:28;99054.06;;;14.43;44.30
58239;BME280;44037;55.638;37.356;2022-09-02T10:35:11;99087.44;;;13.49;45.56
58239;BME280;44037;55.638;37.356;2022-09-02T10:37:49;99114.69;;;13.11;48.66
58239;BME280;44037;55.638;37.356;2022-09-02T10:40:25;99139.25;;;12.79;50.86
58239;BME280;44037;55.638;37.356;2022-09-02T10:43:00;99140.34;;;12.48;52.07
58239;BME280;44037;55.638;37.356;2022-09-02T10:45:35;99143.03;;;12.29;55.71
58239;BME280;44037;55.638;37.356;2022-09-02T10:48:20;99143.13;;;12.16;60.71
58239;BME280;44037;55.638;37.356;2022-09-02T10:50:54;99133.66;;;11.94;62.83
58239;BME280;44037;55.638;37.356;2022-09-02T10:53:35;99141.53;;;11.66;65.75
58239;BME280;44037;55.638;37.356;2022-09-02T10:56:06;99130.34;;;11.58;67.21
58239;BME280;44037;55.638;37.356;2022-09-02T10:58:41;99132.06;;;11.61;69.82
58239;BME280;44037;55.638;37.356;2022-09-02T11:01:30;99135.59;;;11.22;70.72
58239;BME280;44037;55.638;37.356;2022-09-02T11:04:04;99130.44;;;11.12;70.07
58239;BME280;44037;55.638;37.356;2022-09-02T11:06:37;99139.06;;;11.23;72.13
58239;BME280;44037;55.638;37.356;2022-09-02T11:09:08;99133.03;;;11.19;72.01
58239;BME280;44037;55.638;37.356;2022-09-02T11:11:41;99141.63;;;11.37;71.87
58239;BME280;44037;55.638;37.356;2022-09-02T11:14:18;99140.78;;;11.22;71.79
58239;BME280;44037;55.638;37.356;2022-09-02T11:16:49;99144.25;;;11.31;71.17
58239;BME280;44037;55.638;37.356;2022-09-02T11:19:24;99153.78;;;11.27;71.18
58239;BME280;44037;55.638;37.356;2022-09-02T11:21:57;99159.84;;;11.11;72.55
58239;BME280;44037;55.638;37.356;2022-09-02T11:24:30;99153.78;;;11.16;71.82
58239;BME280;44037;55.638;37.356;2022-09-02T11:27:04;99151.16;;;11.10;72.21
58239;BME280;44037;55.638;37.356;2022-09-02T11:29:48;99146.03;;;10.82;72.98
58239;BME280;44037;55.638;37.356;2022-09-02T11:32:27;99157.22;;;10.66;71.86
58239;BME280;44037;55.638;37.356;2022-09-02T11:34:57;99165.00;;;10.66;70.79
58239;BME280;44037;55.638;37.356;2022-09-02T11:37:29;99161.56;;;10.67;71.25
58239;BME280;44037;55.638;37.356;2022-09-02T11:40:03;99157.25;;;10.81;71.94
58239;BME280;44037;55.638;37.356;2022-09-02T11:43:02;99169.34;;;10.87;69.90
58239;BME280;44037;55.638;37.356;2022-09-02T11:45:55;99171.09;;;10.96;71.23
58239;BME280;44037;55.638;37.356;2022-09-02T11:51:55;99167.34;;;12.21;68.92
58239;BME280;44037;55.638;37.356;2022-09-02T11:54:28;99156.69;;;12.61;67.79
58239;BME280;44037;55.638;37.356;2022-09-02T11:57:00;99152.22;;;12.80;65.31
58239;BME280;44037;55.638;37.356;2022-09-02T12:00:03;99157.47;;;12.77;67.53
58239;BME280;44037;55.638;37.356;2022-09-02T12:02:36;99160.19;;;12.55;65.89
58239;BME280;44037;55.638;37.356;2022-09-02T12:08:09;99156.81;;;12.44;65.72
58239;BME280;44037;55.638;37.356;2022-09-02T12:10:56;99165.50;;;12.38;66.33
58239;BME280;44037;55.638;37.356;2022-09-02T12:13:33;99168.09;;;12.38;65.50
58239;BME280;44037;55.638;37.356;2022-09-02T12:19:28;99161.88;;;12.66;66.14
58239;BME280;44037;55.638;37.356;2022-09-02T12:22:35;99152.84;;;13.10;64.65
58239;BME280;44037;55.638;37.356;2022-09-02T12:28:15;99169.09;;;13.34;61.23
58239;BME280;44037;55.638;37.356;2022-09-02T12:31:15;99167.50;;;13.19;58.05
58239;BME280;44037;55.638;37.356;2022-09-02T12:33:46;99170.97;;;13.21;57.56
58239;BME280;44037;55.638;37.356;2022-09-02T12:36:45;99166.41;;;13.46;56.57
58239;BME280;44037;55.638;37.356;2022-09-02T12:39:53;99161.00;;;13.66;57.03
58239;BME280;44037;55.638;37.356;2022-09-02T12:42:27;99157.75;;;13.46;54.77
58239;BME280;44037;55.638;37.356;2022-09-02T12:45:04;99151.69;;;13.44;53.83
58239;BME280;44037;55.638;37.356;2022-09-02T12:47:48;99172.44;;;13.50;55.46
58239;BME280;44037;55.638;37.356;2022-09-02T12:50:24;99159.28;;;13.64;54.37
58239;BME280;44037;55.638;37.356;2022-09-02T12:53:07;99165.22;;;13.77;53.50
58239;BME280;44037;55.638;37.356;2022-09-02T12:55:37;99165.09;;;13.88;53.82
58239;BME280;44037;55.638;37.356;2022-09-02T12:58:08;99157.94;;;14.04;52.33
58239;BME280;44037;55.638;37.356;2022-09-02T13:00:40;99161.38;;;14.07;49.59
58239;BME280;44037;55.638;37.356;2022-09-02T13:03:31;99168.31;;;14.10;49.67
58239;BME280;44037;55.638;37.356;2022-09-02T13:06:10;99162.91;;;14.24;49.42
58239;BME280;44037;55.638;37.356;2022-09-02T13:09:08;99162.56;;;14.49;48.34
58239;BME280;44037;55.638;37.356;2022-09-02T13:12:00;99173.13;;;14.39;49.22
58239;BME280;44037;55.638;37.356;2022-09-02T13:14:51;99179.28;;;14.34;48.69
58239;BME280;44037;55.638;37.356;2022-09-02T13:17:28;99185.44;;;14.26;48.60
58239;BME280;44037;55.638;37.356;2022-09-02T13:20:50;99184.69;;;14.18;48.13
58239;BME280;44037;55.638;37.356;2022-09-02T13:23:42;99202.22;;;14.04;48.52
58239;BME280;44037;55.638;37.356;2022-09-02T13:26:23;99202.41;;;13.88;48.62
58239;BME280;44037;55.638;37.356;2022-09-02T13:29:28;99203.66;;;13.53;48.92
58239;BME280;44037;55.638;37.356;2022-09-02T13:32:12;99207.19;;;13.46;49.13
58239;BME280;44037;55.638;37.356;2022-09-02T13:34:40;99212.47;;;13.33;48.55
58239;BME280;44037;55.638;37.356;2022-09-02T13:37:26;99220.28;;;13.32;49.48